アルマトイ国際空港の過去48時間の天気

アルマトイ国際空港 (Almaty)

現在時刻: 5/26 07:08 +05 (5/26 02:08 UTC) 以下の時間は現地時間です。

過去48時間のMETAR気象情報
時間 風向 風速(m/s) 視程 気温(℃) 湿度(%) 気圧(hPa) 天気現象
26 06:30 静穏 0 10km以上 21 69 1013
26 06:00 静穏 0 10km以上 20 68 1013
26 05:30 2 10km以上 17 72 1013
26 05:00 南南西 2 10km以上 17 72 1013
26 04:30 南南西 2 10km以上 17 68 1012
26 04:00 2 10km以上 17 68 1012
26 03:30 南東 3 10km以上 17 68 1012
26 03:00 南東 3 10km以上 17 68 1012
26 02:30 南南東 3 10km以上 17 63 1012
26 02:00 南東 3 10km以上 18 60 1012
26 01:30 南南東 2 10km以上 17 68 1012
26 01:00 南南東 2 10km以上 18 68 1012
26 00:30 南南東 2 10km以上 18 68 1013
26 00:00 南西 2 10km以上 18 73 1013
25 23:30 3 10km以上 18 68 1013
25 23:00 南南西 2 10km以上 18 73 1013
25 22:30 不定 1 10km以上 17 83 1013
25 22:00 南東 3 10km以上 19 73 1013
25 21:30 南東 2 10km以上 19 73 1013
25 21:00 2 10km以上 19 78 1013
25 20:30 南南東 2 8000m 20 73 1013
25 20:00 2 5000m 21 73 1013
25 19:30 南東 2 5000m 22 65 1013
25 19:00 3 10km以上 23 65 1012
25 18:30 東北東 3 10km以上 24 61 1012
25 18:00 3 10km以上 25 57 1011
25 17:30 北東 2 10km以上 26 51 1011
25 17:00 北東 2 10km以上 26 54 1011
25 16:30 不定 1 10km以上 25 50 1011
25 16:00 2 10km以上 25 54 1011
25 15:30 南東 2 10km以上 26 45 1012
25 15:00 不定 1 10km以上 26 42 1012
25 14:30 2 10km以上 26 45 1012
25 14:00 2 10km以上 25 54 1012
25 13:30 静穏 0 10km以上 24 57 1012
25 13:00 - - 10km以上 24 54 1012 周辺で雷
25 12:30 西 2 10km以上 25 54 1012 周辺で雷
25 12:23 北西 2 10km以上 25 54 1012 周辺で雷
25 12:00 北東 3 10km以上 26 45 1012
25 11:30 2 10km以上 26 54 1011
25 11:00 2 10km以上 24 50 1011
25 10:30 3 10km以上 24 54 1011
25 10:00 北北西 2 10km以上 23 57 1011
25 09:30 不定 1 10km以上 23 61 1011
25 09:00 西南西 2 10km以上 22 57 1011
25 08:30 西南西 2 10km以上 21 64 1011
25 08:00 南南西 2 10km以上 21 64 1011
25 07:30 南西 2 10km以上 20 64 1011
25 07:00 静穏 0 10km以上 20 68 1011
25 06:30 静穏 0 10km以上 19 78 1010
25 06:00 静穏 0 10km以上 18 77 1010
25 05:30 南南東 1 10km以上 17 77 1010
25 05:00 1 10km以上 17 77 1010
25 04:30 不定 1 10km以上 17 77 1010
25 04:00 1 10km以上 17 77 1010
25 03:30 南南西 2 10km以上 17 77 1009
25 03:00 不定 1 10km以上 17 77 1009
25 02:30 南東 2 10km以上 17 77 1009
25 02:00 南東 2 10km以上 17 77 1009
25 01:30 南東 2 10km以上 17 77 1009
25 01:00 南南東 2 10km以上 17 72 1009
25 00:30 南南東 2 10km以上 17 72 1009
25 00:00 南南東 2 10km以上 18 73 1009
24 23:30 2 10km以上 18 73 1009
24 23:00 1 10km以上 17 83 1009
24 22:30 南南東 2 10km以上 17 83 1009
24 22:00 静穏 0 10km以上 18 77 1009
24 21:30 1 10km以上 18 73 1009
24 21:00 南南西 2 10km以上 19 68 1009
24 20:30 南南西 2 10km以上 19 68 1009
24 20:00 2 10km以上 19 73 1009
24 19:30 2 10km以上 19 68 1009
24 19:00 不定 1 10km以上 20 68 1009
24 18:30 西南西 3 10km以上 20 73 1009
24 18:00 南南西 1 10km以上 21 64 1008
24 17:30 不定 1 10km以上 21 64 1008
24 17:00 静穏 0 10km以上 21 64 1008
24 16:30 北北東 2 10km以上 22 60 1008
24 16:00 北北東 2 10km以上 21 64 1008
24 15:30 不定 1 10km以上 22 60 1008
24 15:00 静穏 0 10km以上 21 64 1008
24 14:30 2 10km以上 22 60 1008
24 14:00 不定 1 10km以上 21 60 1008
24 13:30 不定 1 10km以上 22 57 1008
24 13:00 2 10km以上 20 60 1009
24 12:30 東南東 3 10km以上 20 60 1009
24 12:00 東北東 2 10km以上 19 60 1009
24 11:30 不定 1 10km以上 19 60 1009
24 11:00 東北東 2 10km以上 19 60 1010
24 10:30 北北東 2 10km以上 18 60 1010
24 10:00 2 10km以上 18 60 1010
24 09:30 北北東 2 10km以上 17 63 1011
24 09:00 北北東 3 10km以上 16 59 1011
24 08:30 北北東 2 10km以上 17 55 1001
24 08:00 北北東 2 10km以上 16 59 1012
24 07:30 不定 1 10km以上 15 63 1012
UAAA 260130Z 00000MPS 9999 SCT200 21/15 Q1013 NOSIG
UAAA 260100Z 00000MPS 9999 SCT200 20/14 Q1013 NOSIG
UAAA 260030Z 09002MPS 040V180 9999 SCT200 17/12 Q1013 NOSIG
UAAA 260000Z 21002MPS 9999 FEW100 SCT200 17/12 Q1013 NOSIG
UAAA 252330Z 20002MPS 9999 FEW100 SCT200 17/11 Q1012 NOSIG
UAAA 252300Z 18002MPS 9999 FEW100 SCT200 17/11 Q1012 NOSIG
UAAA 252230Z 14003MPS 9999 FEW100 SCT200 17/11 Q1012 NOSIG
UAAA 252200Z 14003MPS 9999 FEW100 SCT200 17/11 Q1012 NOSIG
UAAA 252130Z 16003MPS 9999 FEW050CB BKN100 17/10 Q1012 NOSIG
UAAA 252100Z 14003MPS 9999 FEW050CB BKN100 18/10 Q1012 NOSIG
UAAA 252030Z 15002MPS 9999 FEW050CB BKN100 17/11 Q1012 NOSIG
UAAA 252000Z 15002MPS 9999 FEW050CB BKN100 18/12 Q1012 NOSIG
UAAA 251930Z 16002MPS 9999 FEW050CB BKN100 18/12 Q1013 NOSIG
UAAA 251900Z 22002MPS 9999 FEW050CB BKN100 18/13 Q1013 NOSIG
UAAA 251830Z 18003MPS 9999 FEW050CB BKN100 18/12 Q1013 NOSIG
UAAA 251800Z 20002MPS 9999 FEW050CB BKN100 18/13 Q1013 NOSIG
UAAA 251730Z VRB01MPS 9999 FEW050CB BKN100 17/14 Q1013 NOSIG
UAAA 251700Z 13003MPS 9999 FEW050CB SCT100 19/14 Q1013 NOSIG
UAAA 251630Z 14002MPS 110V170 9999 FEW050CB SCT100 19/14 Q1013 NOSIG
UAAA 251600Z 17002MPS 9999 FEW050CB BKN100 19/15 Q1013 NOSIG
UAAA 251530Z 16002MPS 8000 SCT050CB BKN100 20/15 Q1013 NOSIG
UAAA 251500Z 18002MPS 5000 FU SCT050CB BKN100 21/16 Q1013 NOSIG
UAAA 251430Z 13002MPS 5000 FU SCT050CB BKN100 22/15 Q1013 NOSIG
UAAA 251400Z 09003MPS 9999 SCT050CB BKN100 23/16 Q1012 NOSIG
UAAA 251330Z 07003MPS 9999 SCT050CB BKN100 24/16 Q1012 NOSIG
UAAA 251300Z 09003MPS 9999 SCT050CB BKN100 25/16 Q1011 NOSIG
UAAA 251230Z 05002MPS 010V090 9999 SCT050CB BKN100 26/15 Q1011 NOSIG
UAAA 251200Z 04002MPS 010V080 9999 SCT050CB BKN100 26/16 Q1011 NOSIG
UAAA 251130Z VRB01MPS 9999 SCT050CB BKN100 25/14 Q1011 NOSIG
UAAA 251100Z 17002MPS 9999 SCT050CB BKN100 25/15 Q1011 NOSIG
UAAA 251030Z 14002MPS 110V180 9999 SCT050CB BKN100 26/13 Q1012 NOSIG
UAAA 251000Z VRB01MPS 9999 SCT050CB BKN100 26/12 Q1012 NOSIG
UAAA 250930Z 01002MPS 290V070 9999 SCT050CB BKN100 26/13 Q1012 NOSIG
UAAA 250900Z 09002MPS 040V150 9999 SCT050CB BKN100 25/15 Q1012 NOSIG
UAAA 250830Z 00000MPS 9999 SCT050CB BKN100 24/15 Q1012 NOSIG
UAAA 250800Z GPQPPEMPS 9999 VCTS SCT850CB BKN100 24/14 Q1012 NOSIG
UAAA 250730Z 28002MPS 9999 VCTS SCT050CB BKN100 25/15 Q1012 TEMPO TS
UAAA 250723Z 31002MPS 260V020 9999 VCTS SCT050CB BKN100 25/15 Q1012 TEMPO TS
UAAA 250700Z 05003MPS 330V100 9999 SCT050CB OVC100 26/13 Q1012 TEMPO TS
UAAA 250630Z 01002MPS 9999 SCT050CB OVC100 26/16 Q1011 NOSIG
UAAA 250600Z 35002MPS 300V050 9999 SCT050CB OVC100 24/13 Q1011 NOSIG
UAAA 250530Z 36003MPS 310V050 9999 SCT050CB OVC100 24/14 Q1011 NOSIG
UAAA 250500Z 34002MPS 300V020 9999 SCT050CB OVC100 23/14 Q1011 NOSIG
UAAA 250430Z VRB01MPS 9999 SCT050CB OVC100 23/15 Q1011 NOSIG
UAAA 250400Z 25002MPS 190V290 9999 SCT050CB OVC100 22/13 Q1011 NOSIG
UAAA 250330Z 25002MPS 200V300 9999 SCT050CB OVC100 21/14 Q1011 NOSIG
UAAA 250300Z 21002MPS 180V250 9999 SCT050CB OVC100 21/14 Q1011 NOSIG
UAAA 250230Z 22002MPS 160V260 9999 SCT050CB OVC100 20/13 Q1011 NOSIG
UAAA 250200Z 00000MPS 9999 SCT050CB OVC100 20/14 Q1011 NOSIG
UAAA 250130Z 00000MPS 9999 SCT050CB OVC100 19/15 Q1010 NOSIG
UAAA 250100Z 00000MPS 9999 SCT050CB OVC100 18/14 Q1010 NOSIG
UAAA 250030Z 16001MPS 9999 SCT050CB OVC100 17/13 Q1010 NOSIG
UAAA 250000Z 19001MPS 9999 SCT050CB OVC100 17/13 Q1010 NOSIG
UAAA 242330Z VRB01MPS 9999 SCT050CB OVC100 17/13 Q1010 NOSIG
UAAA 242300Z 17001MPS 9999 SCT050CB OVC100 17/13 Q1010 NOSIG
UAAA 242230Z 20002MPS 150V230 9999 SCT050CB OVC100 17/13 Q1009 NOSIG
UAAA 242200Z VRB01MPS 9999 SCT050CB OVC100 17/13 Q1009 NOSIG
UAAA 242130Z 14002MPS 9999 SCT050CB OVC100 17/13 Q1009 NOSIG
UAAA 242100Z 13002MPS 9999 SCT050CB OVC100 17/13 Q1009 NOSIG
UAAA 242030Z 14002MPS 9999 SCT050CB OVC100 17/13 Q1009 NOSIG
UAAA 242000Z 15002MPS 9999 SCT050CB OVC100 17/12 Q1009 NOSIG
UAAA 241930Z 15002MPS 9999 SCT050CB OVC100 17/12 Q1009 NOSIG
UAAA 241900Z 16002MPS 9999 SCT050CB OVC100 18/13 Q1009 NOSIG
UAAA 241830Z 18002MPS 9999 SCT050CB BKN100 18/13 Q1009 NOSIG
UAAA 241800Z 17001MPS 9999 SCT050CB BKN100 17/14 Q1009 NOSIG
UAAA 241730Z 16002MPS 9999 SCT050CB BKN100 17/14 Q1009 NOSIG
UAAA 241700Z 00000MPS 9999 SCT050CB BKN100 18/14 Q1009 NOSIG
UAAA 241630Z 18001MPS 9999 SCT100 BKN200 18/13 Q1009 NOSIG
UAAA 241600Z 20002MPS 9999 SCT100 BKN200 19/13 Q1009 NOSIG
UAAA 241530Z 21002MPS 9999 FEW050CB BKN100 19/13 Q1009 NOSIG
UAAA 241500Z 18002MPS 9999 FEW050CB BKN100 19/14 Q1009 NOSIG
UAAA 241430Z 19002MPS 9999 FEW050CB BKN100 19/13 Q1009 NOSIG
UAAA 241400Z VRB01MPS 9999 FEW050CB BKN100 20/14 Q1009 NOSIG
UAAA 241330Z 24003MPS 9999 SCT050CB BKN100 20/15 Q1009 NOSIG
UAAA 241300Z 20001MPS 9999 SCT050CB BKN100 21/14 Q1008 NOSIG
UAAA 241230Z VRB01MPS 9999 SCT050CB BKN100 21/14 Q1008 NOSIG
UAAA 241200Z 00000MPS 9999 SCT050CB BKN100 21/14 Q1008 NOSIG
UAAA 241130Z 02002MPS 340V070 9999 SCT050CB BKN100 22/14 Q1008 NOSIG
UAAA 241100Z 02002MPS 350V050 9999 SCT050CB BKN100 21/14 Q1008 NOSIG
UAAA 241030Z VRB01MPS 9999 FEW050CB BKN100 22/14 Q1008 NOSIG
UAAA 241000Z 00000MPS 9999 FEW050CB BKN100 21/14 Q1008 NOSIG
UAAA 240930Z 17002MPS 100V230 9999 SCT100 BKN200 22/14 Q1008 NOSIG
UAAA 240900Z VRB01MPS 9999 SCT100 BKN200 21/13 Q1008 NOSIG
UAAA 240830Z VRB01MPS 9999 FEW100 BKN200 22/13 Q1008 NOSIG
UAAA 240800Z 36002MPS 9999 FEW100 BKN200 20/12 Q1009 NOSIG
UAAA 240730Z 12003MPS 080V180 9999 FEW100 BKN200 20/12 Q1009 NOSIG
UAAA 240700Z 06002MPS 330V100 9999 FEW100 BKN200 19/11 Q1009 NOSIG
UAAA 240630Z VRB01MPS 9999 FEW100 BKN200 19/11 Q1009 NOSIG
UAAA 240600Z 07002MPS 350V120 9999 FEW100 BKN200 19/11 Q1010 NOSIG
UAAA 240530Z 03002MPS 9999 FEW100 BKN200 18/10 Q1010 NOSIG
UAAA 240500Z 36002MPS 320V080 9999 FEW100 BKN200 18/10 Q1010 NOSIG
UAAA 240430Z 03002MPS 9999 FEW100 BKN200 17/10 Q1011 NOSIG
UAAA 240400Z 03003MPS 290V070 9999 FEW100 BKN200 16/08 Q1011 NOSIG
UAAA 240330Z 02002MPS 330V100 9999 FEW100 BKN200 17/08 Q1001 NOSIG
UAAA 240300Z 03002MPS 330V060 9999 FEW100 BKN200 16/08 Q1012 NOSIG
UAAA 240230Z VRB01MPS 9999 FEW100 BKN200 15/08 Q1012 NOSIG